Terminal Aerodrome Forecast
Issued by NWS Wakefield, VA

Current Version | Previous Version | Text Only | Print | Product List | Glossary On
Versions: 1 2 3 4 5 6 7 8 9 10 11 12 13 14 15 16 17 18 19 20 21
747
FTUS41 KAKQ 300858 AAB
TAFSBY
TAF AMD
KSBY 300858Z 3009/3106 20005KT P6SM -SHRADZ BKN005 BKN050 OVC100
     FM301500 VRB03KT 5SM -RA BR BKN010 OVC030
     FM310100 VRB03KT 4SM -SHRA BR OVC003=

USA.gov is the U.S. government's official web portal to all federal, state and local government web resources and services.